sensor_id;sensor_type;location;lat;lon;timestamp;P1;durP1;ratioP1;P2;durP2;ratioP2
21297;SDS011;10808;48.010;11.326;2022-07-30T00:01:37;2.35;;;2.15;;
21297;SDS011;10808;48.010;11.326;2022-07-30T00:04:03;3.00;;;2.42;;
21297;SDS011;10808;48.010;11.326;2022-07-30T00:06:29;2.60;;;2.40;;
21297;SDS011;10808;48.010;11.326;2022-07-30T00:08:55;3.30;;;2.40;;
21297;SDS011;10808;48.010;11.326;2022-07-30T00:11:21;2.50;;;2.30;;
21297;SDS011;10808;48.010;11.326;2022-07-30T00:13:47;2.80;;;2.50;;
21297;SDS011;10808;48.010;11.326;2022-07-30T00:16:13;2.60;;;2.40;;
21297;SDS011;10808;48.010;11.326;2022-07-30T00:18:39;2.50;;;2.30;;
21297;SDS011;10808;48.010;11.326;2022-07-30T00:21:05;4.95;;;2.10;;
21297;SDS011;10808;48.010;11.326;2022-07-30T00:23:34;2.50;;;2.30;;
21297;SDS011;10808;48.010;11.326;2022-07-30T00:26:00;2.40;;;2.10;;
21297;SDS011;10808;48.010;11.326;2022-07-30T00:28:26;2.38;;;2.17;;
21297;SDS011;10808;48.010;11.326;2022-07-30T00:30:52;3.00;;;2.20;;
21297;SDS011;10808;48.010;11.326;2022-07-30T00:33:18;4.03;;;2.25;;
21297;SDS011;10808;48.010;11.326;2022-07-30T00:35:44;2.30;;;2.10;;
21297;SDS011;10808;48.010;11.326;2022-07-30T00:38:10;2.90;;;2.20;;
21297;SDS011;10808;48.010;11.326;2022-07-30T00:40:36;2.45;;;2.25;;
21297;SDS011;10808;48.010;11.326;2022-07-30T00:43:02;3.28;;;2.25;;
21297;SDS011;10808;48.010;11.326;2022-07-30T00:45:28;2.47;;;2.25;;
21297;SDS011;10808;48.010;11.326;2022-07-30T00:47:54;4.78;;;2.08;;
21297;SDS011;10808;48.010;11.326;2022-07-30T00:50:20;2.63;;;2.30;;
21297;SDS011;10808;48.010;11.326;2022-07-30T00:52:46;3.47;;;2.22;;
21297;SDS011;10808;48.010;11.326;2022-07-30T00:55:13;2.58;;;2.35;;
21297;SDS011;10808;48.010;11.326;2022-07-30T00:57:40;3.65;;;2.28;;
21297;SDS011;10808;48.010;11.326;2022-07-30T01:00:08;2.45;;;2.20;;
21297;SDS011;10808;48.010;11.326;2022-07-30T01:02:36;3.72;;;2.17;;
21297;SDS011;10808;48.010;11.326;2022-07-30T01:05:02;2.80;;;2.40;;
21297;SDS011;10808;48.010;11.326;2022-07-30T01:07:29;2.38;;;2.10;;
21297;SDS011;10808;48.010;11.326;2022-07-30T01:09:55;5.32;;;2.50;;
21297;SDS011;10808;48.010;11.326;2022-07-30T01:12:22;3.35;;;2.40;;
21297;SDS011;10808;48.010;11.326;2022-07-30T01:14:49;2.72;;;2.42;;
21297;SDS011;10808;48.010;11.326;2022-07-30T01:17:16;2.60;;;2.40;;
21297;SDS011;10808;48.010;11.326;2022-07-30T01:19:43;3.08;;;2.50;;
21297;SDS011;10808;48.010;11.326;2022-07-30T01:22:30;3.97;;;2.37;;
21297;SDS011;10808;48.010;11.326;2022-07-30T01:25:07;4.18;;;2.50;;
21297;SDS011;10808;48.010;11.326;2022-07-30T01:30:39;3.33;;;2.70;;
21297;SDS011;10808;48.010;11.326;2022-07-30T01:33:07;3.50;;;2.40;;
21297;SDS011;10808;48.010;11.326;2022-07-30T01:35:36;4.68;;;2.55;;
21297;SDS011;10808;48.010;11.326;2022-07-30T01:38:04;3.55;;;2.80;;
21297;SDS011;10808;48.010;11.326;2022-07-30T01:40:32;3.10;;;2.80;;
21297;SDS011;10808;48.010;11.326;2022-07-30T01:43:00;3.30;;;2.92;;
21297;SDS011;10808;48.010;11.326;2022-07-30T01:45:28;3.85;;;2.83;;
21297;SDS011;10808;48.010;11.326;2022-07-30T01:47:56;3.35;;;2.83;;
21297;SDS011;10808;48.010;11.326;2022-07-30T01:50:25;4.97;;;3.03;;
21297;SDS011;10808;48.010;11.326;2022-07-30T01:52:55;3.55;;;2.70;;
21297;SDS011;10808;48.010;11.326;2022-07-30T01:55:40;3.08;;;2.80;;
21297;SDS011;10808;48.010;11.326;2022-07-30T01:58:09;4.32;;;3.10;;
21297;SDS011;10808;48.010;11.326;2022-07-30T02:00:37;3.40;;;3.10;;
21297;SDS011;10808;48.010;11.326;2022-07-30T02:03:04;3.13;;;2.83;;
21297;SDS011;10808;48.010;11.326;2022-07-30T02:05:33;5.30;;;3.20;;
21297;SDS011;10808;48.010;11.326;2022-07-30T02:10:41;4.90;;;3.20;;
21297;SDS011;10808;48.010;11.326;2022-07-30T02:13:10;4.82;;;3.45;;
21297;SDS011;10808;48.010;11.326;2022-07-30T02:15:45;3.40;;;3.10;;
21297;SDS011;10808;48.010;11.326;2022-07-30T02:18:17;6.75;;;3.58;;
21297;SDS011;10808;48.010;11.326;2022-07-30T02:20:50;4.40;;;3.40;;
21297;SDS011;10808;48.010;11.326;2022-07-30T02:23:20;3.90;;;3.50;;
21297;SDS011;10808;48.010;11.326;2022-07-30T02:25:48;4.38;;;3.58;;
21297;SDS011;10808;48.010;11.326;2022-07-30T02:28:16;6.72;;;3.50;;
21297;SDS011;10808;48.010;11.326;2022-07-30T02:30:48;4.07;;;3.67;;
21297;SDS011;10808;48.010;11.326;2022-07-30T02:33:22;4.40;;;3.80;;
21297;SDS011;10808;48.010;11.326;2022-07-30T02:35:51;4.25;;;3.85;;
21297;SDS011;10808;48.010;11.326;2022-07-30T02:38:19;7.05;;;3.90;;
21297;SDS011;10808;48.010;11.326;2022-07-30T02:40:46;4.13;;;3.72;;
21297;SDS011;10808;48.010;11.326;2022-07-30T02:43:16;4.28;;;3.88;;
21297;SDS011;10808;48.010;11.326;2022-07-30T02:45:42;4.65;;;3.70;;
21297;SDS011;10808;48.010;11.326;2022-07-30T02:48:11;5.90;;;4.00;;
21297;SDS011;10808;48.010;11.326;2022-07-30T02:50:38;5.93;;;3.80;;
21297;SDS011;10808;48.010;11.326;2022-07-30T02:53:06;4.20;;;3.75;;
21297;SDS011;10808;48.010;11.326;2022-07-30T02:55:35;5.57;;;3.87;;
21297;SDS011;10808;48.010;11.326;2022-07-30T02:58:04;5.68;;;4.15;;
21297;SDS011;10808;48.010;11.326;2022-07-30T03:00:31;6.05;;;4.10;;
21297;SDS011;10808;48.010;11.326;2022-07-30T03:02:59;6.13;;;4.10;;
21297;SDS011;10808;48.010;11.326;2022-07-30T03:05:26;4.63;;;4.20;;
21297;SDS011;10808;48.010;11.326;2022-07-30T03:07:53;6.43;;;4.28;;
21297;SDS011;10808;48.010;11.326;2022-07-30T03:10:21;4.82;;;4.40;;
21297;SDS011;10808;48.010;11.326;2022-07-30T03:12:48;5.97;;;4.43;;
21297;SDS011;10808;48.010;11.326;2022-07-30T03:15:15;6.28;;;4.28;;
21297;SDS011;10808;48.010;11.326;2022-07-30T03:17:42;8.88;;;4.10;;
21297;SDS011;10808;48.010;11.326;2022-07-30T03:20:11;6.83;;;4.20;;
21297;SDS011;10808;48.010;11.326;2022-07-30T03:22:43;4.57;;;4.10;;
21297;SDS011;10808;48.010;11.326;2022-07-30T03:25:15;5.80;;;4.18;;
21297;SDS011;10808;48.010;11.326;2022-07-30T03:27:44;5.13;;;4.20;;
21297;SDS011;10808;48.010;11.326;2022-07-30T03:30:12;4.72;;;3.97;;
21297;SDS011;10808;48.010;11.326;2022-07-30T03:32:39;5.45;;;4.05;;
21297;SDS011;10808;48.010;11.326;2022-07-30T03:35:06;4.50;;;3.80;;
21297;SDS011;10808;48.010;11.326;2022-07-30T03:37:33;7.40;;;4.05;;
21297;SDS011;10808;48.010;11.326;2022-07-30T03:40:01;6.97;;;4.25;;
21297;SDS011;10808;48.010;11.326;2022-07-30T03:42:35;4.88;;;4.10;;
21297;SDS011;10808;48.010;11.326;2022-07-30T03:45:08;5.95;;;3.80;;
21297;SDS011;10808;48.010;11.326;2022-07-30T03:47:39;7.13;;;4.07;;
21297;SDS011;10808;48.010;11.326;2022-07-30T03:50:12;6.47;;;4.28;;
21297;SDS011;10808;48.010;11.326;2022-07-30T03:52:46;4.77;;;4.00;;
21297;SDS011;10808;48.010;11.326;2022-07-30T03:55:19;5.43;;;4.10;;
21297;SDS011;10808;48.010;11.326;2022-07-30T03:57:46;4.88;;;4.18;;
21297;SDS011;10808;48.010;11.326;2022-07-30T04:00:13;6.82;;;4.00;;
21297;SDS011;10808;48.010;11.326;2022-07-30T04:02:40;5.15;;;3.92;;
21297;SDS011;10808;48.010;11.326;2022-07-30T04:05:07;5.10;;;3.95;;
21297;SDS011;10808;48.010;11.326;2022-07-30T04:07:34;4.55;;;4.00;;
21297;SDS011;10808;48.010;11.326;2022-07-30T04:10:00;6.07;;;4.05;;
21297;SDS011;10808;48.010;11.326;2022-07-30T04:12:26;6.10;;;4.18;;
21297;SDS011;10808;48.010;11.326;2022-07-30T04:14:52;5.93;;;4.18;;
21297;SDS011;10808;48.010;11.326;2022-07-30T04:17:20;6.45;;;3.88;;
21297;SDS011;10808;48.010;11.326;2022-07-30T04:19:51;4.32;;;3.78;;
21297;SDS011;10808;48.010;11.326;2022-07-30T04:22:22;5.20;;;4.17;;
21297;SDS011;10808;48.010;11.326;2022-07-30T04:24:52;7.10;;;4.18;;
21297;SDS011;10808;48.010;11.326;2022-07-30T04:27:21;5.70;;;4.35;;
21297;SDS011;10808;48.010;11.326;2022-07-30T04:29:50;6.10;;;3.90;;
21297;SDS011;10808;48.010;11.326;2022-07-30T04:32:17;4.85;;;3.90;;
21297;SDS011;10808;48.010;11.326;2022-07-30T04:34:47;5.40;;;3.93;;
21297;SDS011;10808;48.010;11.326;2022-07-30T04:37:15;6.40;;;4.20;;
21297;SDS011;10808;48.010;11.326;2022-07-30T04:39:43;6.35;;;3.92;;
21297;SDS011;10808;48.010;11.326;2022-07-30T04:42:09;4.50;;;4.00;;
21297;SDS011;10808;48.010;11.326;2022-07-30T04:44:36;4.95;;;3.95;;
21297;SDS011;10808;48.010;11.326;2022-07-30T04:47:03;4.95;;;3.97;;
21297;SDS011;10808;48.010;11.326;2022-07-30T04:49:29;4.72;;;4.00;;
21297;SDS011;10808;48.010;11.326;2022-07-30T04:51:56;4.78;;;3.85;;
21297;SDS011;10808;48.010;11.326;2022-07-30T04:54:23;6.80;;;4.00;;
21297;SDS011;10808;48.010;11.326;2022-07-30T04:56:50;4.80;;;3.72;;
21297;SDS011;10808;48.010;11.326;2022-07-30T04:59:17;4.47;;;3.92;;
21297;SDS011;10808;48.010;11.326;2022-07-30T05:01:46;4.27;;;3.87;;
21297;SDS011;10808;48.010;11.326;2022-07-30T05:04:14;6.97;;;3.90;;
21297;SDS011;10808;48.010;11.326;2022-07-30T05:06:41;6.30;;;4.10;;
21297;SDS011;10808;48.010;11.326;2022-07-30T05:09:08;4.65;;;4.10;;
21297;SDS011;10808;48.010;11.326;2022-07-30T05:11:35;5.97;;;4.10;;
21297;SDS011;10808;48.010;11.326;2022-07-30T05:14:01;6.40;;;4.20;;
21297;SDS011;10808;48.010;11.326;2022-07-30T05:16:27;4.95;;;4.10;;
21297;SDS011;10808;48.010;11.326;2022-07-30T05:18:54;5.28;;;3.83;;
21297;SDS011;10808;48.010;11.326;2022-07-30T05:21:20;4.35;;;3.95;;
21297;SDS011;10808;48.010;11.326;2022-07-30T05:23:46;4.80;;;4.00;;
21297;SDS011;10808;48.010;11.326;2022-07-30T05:26:12;5.22;;;4.40;;
21297;SDS011;10808;48.010;11.326;2022-07-30T05:28:38;4.63;;;4.22;;
21297;SDS011;10808;48.010;11.326;2022-07-30T05:31:04;5.97;;;4.38;;
21297;SDS011;10808;48.010;11.326;2022-07-30T05:33:30;7.10;;;4.30;;
21297;SDS011;10808;48.010;11.326;2022-07-30T05:35:56;5.20;;;4.25;;
21297;SDS011;10808;48.010;11.326;2022-07-30T05:38:24;4.95;;;4.45;;
21297;SDS011;10808;48.010;11.326;2022-07-30T05:40:50;5.03;;;4.40;;
21297;SDS011;10808;48.010;11.326;2022-07-30T05:43:16;6.33;;;4.60;;
21297;SDS011;10808;48.010;11.326;2022-07-30T05:45:42;7.63;;;4.50;;
21297;SDS011;10808;48.010;11.326;2022-07-30T05:48:08;5.20;;;4.60;;
21297;SDS011;10808;48.010;11.326;2022-07-30T05:50:34;6.40;;;4.47;;
21297;SDS011;10808;48.010;11.326;2022-07-30T05:53:00;6.70;;;4.70;;
21297;SDS011;10808;48.010;11.326;2022-07-30T05:55:26;6.18;;;4.90;;
21297;SDS011;10808;48.010;11.326;2022-07-30T05:57:52;7.10;;;4.72;;
21297;SDS011;10808;48.010;11.326;2022-07-30T06:00:18;9.00;;;4.43;;
21297;SDS011;10808;48.010;11.326;2022-07-30T06:02:44;5.40;;;4.13;;
21297;SDS011;10808;48.010;11.326;2022-07-30T06:05:11;5.20;;;4.63;;
21297;SDS011;10808;48.010;11.326;2022-07-30T06:07:37;4.82;;;4.30;;
21297;SDS011;10808;48.010;11.326;2022-07-30T06:10:03;6.70;;;4.53;;
21297;SDS011;10808;48.010;11.326;2022-07-30T06:12:30;7.82;;;4.57;;
21297;SDS011;10808;48.010;11.326;2022-07-30T06:14:56;4.47;;;4.07;;
21297;SDS011;10808;48.010;11.326;2022-07-30T06:17:23;5.15;;;4.65;;
21297;SDS011;10808;48.010;11.326;2022-07-30T06:19:52;8.13;;;4.68;;
21297;SDS011;10808;48.010;11.326;2022-07-30T06:22:18;6.40;;;4.60;;
21297;SDS011;10808;48.010;11.326;2022-07-30T06:24:44;5.13;;;4.63;;
21297;SDS011;10808;48.010;11.326;2022-07-30T06:27:10;6.27;;;4.70;;
21297;SDS011;10808;48.010;11.326;2022-07-30T06:29:36;5.20;;;4.13;;
21297;SDS011;10808;48.010;11.326;2022-07-30T06:32:03;4.72;;;4.25;;
21297;SDS011;10808;48.010;11.326;2022-07-30T06:34:29;5.53;;;4.45;;
21297;SDS011;10808;48.010;11.326;2022-07-30T06:36:55;7.82;;;4.45;;
21297;SDS011;10808;48.010;11.326;2022-07-30T06:39:21;5.35;;;4.55;;
21297;SDS011;10808;48.010;11.326;2022-07-30T06:41:47;5.03;;;4.53;;
21297;SDS011;10808;48.010;11.326;2022-07-30T06:44:13;6.05;;;4.60;;
21297;SDS011;10808;48.010;11.326;2022-07-30T06:46:39;6.27;;;5.20;;
21297;SDS011;10808;48.010;11.326;2022-07-30T06:49:05;7.72;;;5.00;;
21297;SDS011;10808;48.010;11.326;2022-07-30T06:51:31;7.72;;;5.25;;
21297;SDS011;10808;48.010;11.326;2022-07-30T06:53:57;6.65;;;5.10;;
21297;SDS011;10808;48.010;11.326;2022-07-30T06:56:23;7.35;;;5.63;;
21297;SDS011;10808;48.010;11.326;2022-07-30T06:58:49;7.53;;;5.65;;
21297;SDS011;10808;48.010;11.326;2022-07-30T07:01:15;6.68;;;5.45;;
21297;SDS011;10808;48.010;11.326;2022-07-30T07:03:41;9.68;;;5.70;;
21297;SDS011;10808;48.010;11.326;2022-07-30T07:06:07;8.60;;;5.63;;
21297;SDS011;10808;48.010;11.326;2022-07-30T07:08:36;10.48;;;6.47;;
21297;SDS011;10808;48.010;11.326;2022-07-30T07:11:03;9.20;;;5.90;;
21297;SDS011;10808;48.010;11.326;2022-07-30T07:13:29;10.57;;;5.70;;
21297;SDS011;10808;48.010;11.326;2022-07-30T07:15:55;9.25;;;5.93;;
21297;SDS011;10808;48.010;11.326;2022-07-30T07:18:22;6.85;;;5.88;;
21297;SDS011;10808;48.010;11.326;2022-07-30T07:20:48;11.40;;;6.73;;
21297;SDS011;10808;48.010;11.326;2022-07-30T07:23:14;11.57;;;5.70;;
21297;SDS011;10808;48.010;11.326;2022-07-30T07:25:40;6.57;;;5.87;;
21297;SDS011;10808;48.010;11.326;2022-07-30T07:28:06;6.70;;;6.00;;
21297;SDS011;10808;48.010;11.326;2022-07-30T07:30:32;7.95;;;7.13;;
21297;SDS011;10808;48.010;11.326;2022-07-30T07:32:58;10.05;;;7.30;;
21297;SDS011;10808;48.010;11.326;2022-07-30T07:35:24;10.23;;;7.00;;
21297;SDS011;10808;48.010;11.326;2022-07-30T07:37:51;7.80;;;6.60;;
21297;SDS011;10808;48.010;11.326;2022-07-30T07:40:17;10.20;;;7.00;;
21297;SDS011;10808;48.010;11.326;2022-07-30T07:42:43;8.15;;;6.78;;
21297;SDS011;10808;48.010;11.326;2022-07-30T07:45:09;8.57;;;6.80;;
21297;SDS011;10808;48.010;11.326;2022-07-30T07:47:45;8.65;;;6.70;;
21297;SDS011;10808;48.010;11.326;2022-07-30T07:50:15;8.60;;;6.20;;
21297;SDS011;10808;48.010;11.326;2022-07-30T07:52:43;10.07;;;7.20;;
21297;SDS011;10808;48.010;11.326;2022-07-30T07:55:09;8.20;;;7.10;;
21297;SDS011;10808;48.010;11.326;2022-07-30T07:57:39;10.20;;;6.70;;
21297;SDS011;10808;48.010;11.326;2022-07-30T08:00:09;6.60;;;5.90;;
21297;SDS011;10808;48.010;11.326;2022-07-30T08:02:37;8.80;;;6.57;;
21297;SDS011;10808;48.010;11.326;2022-07-30T08:05:03;8.32;;;5.70;;
21297;SDS011;10808;48.010;11.326;2022-07-30T08:07:30;9.77;;;6.15;;
21297;SDS011;10808;48.010;11.326;2022-07-30T08:09:56;8.23;;;5.95;;
21297;SDS011;10808;48.010;11.326;2022-07-30T08:12:23;7.30;;;5.90;;
21297;SDS011;10808;48.010;11.326;2022-07-30T08:14:49;7.75;;;5.28;;
21297;SDS011;10808;48.010;11.326;2022-07-30T08:17:15;7.82;;;6.07;;
21297;SDS011;10808;48.010;11.326;2022-07-30T08:19:41;6.03;;;5.35;;
21297;SDS011;10808;48.010;11.326;2022-07-30T08:22:07;9.75;;;6.25;;
21297;SDS011;10808;48.010;11.326;2022-07-30T08:24:33;7.75;;;5.80;;
21297;SDS011;10808;48.010;11.326;2022-07-30T08:26:59;7.20;;;6.15;;
21297;SDS011;10808;48.010;11.326;2022-07-30T08:29:25;7.80;;;5.82;;
21297;SDS011;10808;48.010;11.326;2022-07-30T08:31:51;6.50;;;5.75;;
21297;SDS011;10808;48.010;11.326;2022-07-30T08:34:17;9.03;;;5.73;;
21297;SDS011;10808;48.010;11.326;2022-07-30T08:36:44;7.17;;;5.30;;
21297;SDS011;10808;48.010;11.326;2022-07-30T08:39:10;7.93;;;5.43;;
21297;SDS011;10808;48.010;11.326;2022-07-30T08:41:36;7.30;;;5.55;;
21297;SDS011;10808;48.010;11.326;2022-07-30T08:44:03;6.70;;;5.20;;
21297;SDS011;10808;48.010;11.326;2022-07-30T08:46:38;7.03;;;5.32;;
21297;SDS011;10808;48.010;11.326;2022-07-30T08:49:07;5.65;;;4.65;;
21297;SDS011;10808;48.010;11.326;2022-07-30T08:51:35;8.95;;;4.97;;
21297;SDS011;10808;48.010;11.326;2022-07-30T08:54:02;7.53;;;4.75;;
21297;SDS011;10808;48.010;11.326;2022-07-30T08:56:29;6.60;;;4.68;;
21297;SDS011;10808;48.010;11.326;2022-07-30T08:58:58;5.95;;;4.90;;
21297;SDS011;10808;48.010;11.326;2022-07-30T09:01:24;7.35;;;4.25;;
21297;SDS011;10808;48.010;11.326;2022-07-30T09:03:51;5.25;;;4.25;;
21297;SDS011;10808;48.010;11.326;2022-07-30T09:06:17;6.03;;;4.57;;
21297;SDS011;10808;48.010;11.326;2022-07-30T09:08:43;6.22;;;4.20;;
21297;SDS011;10808;48.010;11.326;2022-07-30T09:11:10;6.30;;;4.50;;
21297;SDS011;10808;48.010;11.326;2022-07-30T09:13:37;10.40;;;4.80;;
21297;SDS011;10808;48.010;11.326;2022-07-30T09:16:06;6.70;;;4.50;;
21297;SDS011;10808;48.010;11.326;2022-07-30T09:18:42;10.25;;;4.80;;
21297;SDS011;10808;48.010;11.326;2022-07-30T09:26:27;7.95;;;4.43;;
21297;SDS011;10808;48.010;11.326;2022-07-30T09:29:12;6.40;;;5.07;;
21297;SDS011;10808;48.010;11.326;2022-07-30T09:31:56;6.07;;;5.03;;
21297;SDS011;10808;48.010;11.326;2022-07-30T09:34:28;6.45;;;4.55;;
21297;SDS011;10808;48.010;11.326;2022-07-30T09:36:55;5.25;;;4.25;;
21297;SDS011;10808;48.010;11.326;2022-07-30T09:39:27;7.22;;;4.50;;
21297;SDS011;10808;48.010;11.326;2022-07-30T09:41:57;7.38;;;4.80;;
21297;SDS011;10808;48.010;11.326;2022-07-30T09:44:24;6.07;;;3.92;;
21297;SDS011;10808;48.010;11.326;2022-07-30T09:46:51;5.65;;;4.10;;
21297;SDS011;10808;48.010;11.326;2022-07-30T09:49:19;6.18;;;4.22;;
21297;SDS011;10808;48.010;11.326;2022-07-30T09:51:47;5.30;;;3.88;;
21297;SDS011;10808;48.010;11.326;2022-07-30T09:54:13;5.23;;;4.13;;
21297;SDS011;10808;48.010;11.326;2022-07-30T09:56:39;5.85;;;4.40;;
21297;SDS011;10808;48.010;11.326;2022-07-30T09:59:26;7.07;;;4.65;;
21297;SDS011;10808;48.010;11.326;2022-07-30T10:01:54;5.22;;;4.00;;
21297;SDS011;10808;48.010;11.326;2022-07-30T10:04:25;5.95;;;4.15;;
21297;SDS011;10808;48.010;11.326;2022-07-30T10:06:52;7.43;;;3.70;;
21297;SDS011;10808;48.010;11.326;2022-07-30T10:11:56;4.72;;;3.90;;
21297;SDS011;10808;48.010;11.326;2022-07-30T10:14:24;5.88;;;3.95;;
21297;SDS011;10808;48.010;11.326;2022-07-30T10:16:54;4.72;;;3.70;;
21297;SDS011;10808;48.010;11.326;2022-07-30T10:19:21;5.25;;;3.40;;
21297;SDS011;10808;48.010;11.326;2022-07-30T10:21:48;6.65;;;3.25;;
21297;SDS011;10808;48.010;11.326;2022-07-30T10:24:23;4.55;;;3.55;;
21297;SDS011;10808;48.010;11.326;2022-07-30T10:26:50;6.35;;;3.50;;
21297;SDS011;10808;48.010;11.326;2022-07-30T10:29:19;5.43;;;3.17;;
21297;SDS011;10808;48.010;11.326;2022-07-30T10:31:49;5.15;;;2.90;;
21297;SDS011;10808;48.010;11.326;2022-07-30T10:34:16;3.75;;;3.00;;
21297;SDS011;10808;48.010;11.326;2022-07-30T10:36:54;2.92;;;2.72;;
21297;SDS011;10808;48.010;11.326;2022-07-30T10:39:24;3.75;;;3.28;;
21297;SDS011;10808;48.010;11.326;2022-07-30T10:42:17;4.70;;;2.88;;
21297;SDS011;10808;48.010;11.326;2022-07-30T10:47:18;4.15;;;2.97;;
21297;SDS011;10808;48.010;11.326;2022-07-30T10:52:42;4.32;;;3.10;;
21297;SDS011;10808;48.010;11.326;2022-07-30T10:55:26;3.30;;;3.00;;
21297;SDS011;10808;48.010;11.326;2022-07-30T11:00:34;4.78;;;3.15;;
21297;SDS011;10808;48.010;11.326;2022-07-30T11:05:49;6.20;;;3.67;;
21297;SDS011;10808;48.010;11.326;2022-07-30T11:10:59;4.05;;;2.90;;
21297;SDS011;10808;48.010;11.326;2022-07-30T11:16:19;3.23;;;2.50;;
21297;SDS011;10808;48.010;11.326;2022-07-30T11:19:13;4.30;;;3.05;;
21297;SDS011;10808;48.010;11.326;2022-07-30T11:21:45;3.97;;;2.80;;
21297;SDS011;10808;48.010;11.326;2022-07-30T11:24:42;3.17;;;2.80;;
21297;SDS011;10808;48.010;11.326;2022-07-30T11:27:09;4.10;;;2.87;;
21297;SDS011;10808;48.010;11.326;2022-07-30T11:29:55;5.57;;;3.00;;
21297;SDS011;10808;48.010;11.326;2022-07-30T11:34:55;2.90;;;2.60;;
21297;SDS011;10808;48.010;11.326;2022-07-30T11:40:32;5.05;;;2.70;;
21297;SDS011;10808;48.010;11.326;2022-07-30T11:43:15;3.40;;;2.75;;
21297;SDS011;10808;48.010;11.326;2022-07-30T11:48:54;3.67;;;3.13;;
21297;SDS011;10808;48.010;11.326;2022-07-30T11:51:21;3.78;;;2.60;;
21297;SDS011;10808;48.010;11.326;2022-07-30T11:54:01;3.38;;;2.85;;
21297;SDS011;10808;48.010;11.326;2022-07-30T11:56:28;3.33;;;2.90;;
21297;SDS011;10808;48.010;11.326;2022-07-30T12:01:29;3.20;;;2.90;;
21297;SDS011;10808;48.010;11.326;2022-07-30T12:03:56;5.53;;;3.00;;
21297;SDS011;10808;48.010;11.326;2022-07-30T12:06:22;3.63;;;3.10;;
21297;SDS011;10808;48.010;11.326;2022-07-30T12:08:49;3.65;;;2.90;;
21297;SDS011;10808;48.010;11.326;2022-07-30T12:11:17;3.78;;;3.10;;
21297;SDS011;10808;48.010;11.326;2022-07-30T12:13:43;3.63;;;3.03;;
21297;SDS011;10808;48.010;11.326;2022-07-30T12:16:20;5.90;;;3.10;;
21297;SDS011;10808;48.010;11.326;2022-07-30T12:18:46;4.05;;;3.00;;
21297;SDS011;10808;48.010;11.326;2022-07-30T12:21:13;3.83;;;3.22;;
21297;SDS011;10808;48.010;11.326;2022-07-30T12:23:53;3.63;;;3.00;;
21297;SDS011;10808;48.010;11.326;2022-07-30T12:26:21;3.83;;;3.00;;
21297;SDS011;10808;48.010;11.326;2022-07-30T12:28:49;3.37;;;3.07;;
21297;SDS011;10808;48.010;11.326;2022-07-30T12:31:15;4.63;;;3.00;;
21297;SDS011;10808;48.010;11.326;2022-07-30T12:33:42;4.93;;;2.85;;
21297;SDS011;10808;48.010;11.326;2022-07-30T12:36:08;3.88;;;2.40;;
21297;SDS011;10808;48.010;11.326;2022-07-30T12:38:44;4.07;;;2.70;;
21297;SDS011;10808;48.010;11.326;2022-07-30T12:41:15;3.17;;;2.63;;
21297;SDS011;10808;48.010;11.326;2022-07-30T12:46:22;3.58;;;2.67;;
21297;SDS011;10808;48.010;11.326;2022-07-30T12:51:16;4.22;;;2.60;;
21297;SDS011;10808;48.010;11.326;2022-07-30T12:53:43;3.40;;;2.60;;
21297;SDS011;10808;48.010;11.326;2022-07-30T12:56:11;3.42;;;2.60;;
21297;SDS011;10808;48.010;11.326;2022-07-30T12:58:39;3.95;;;2.67;;
21297;SDS011;10808;48.010;11.326;2022-07-30T13:01:05;2.75;;;2.22;;
21297;SDS011;10808;48.010;11.326;2022-07-30T13:03:32;4.38;;;2.60;;
21297;SDS011;10808;48.010;11.326;2022-07-30T13:09:04;2.78;;;2.40;;
21297;SDS011;10808;48.010;11.326;2022-07-30T13:11:39;3.10;;;2.25;;
21297;SDS011;10808;48.010;11.326;2022-07-30T13:14:07;4.57;;;2.50;;
21297;SDS011;10808;48.010;11.326;2022-07-30T13:16:34;2.55;;;2.20;;
21297;SDS011;10808;48.010;11.326;2022-07-30T13:19:08;5.40;;;2.38;;
21297;SDS011;10808;48.010;11.326;2022-07-30T13:21:35;2.78;;;2.42;;
21297;SDS011;10808;48.010;11.326;2022-07-30T13:24:02;3.20;;;2.25;;
21297;SDS011;10808;48.010;11.326;2022-07-30T13:26:29;3.75;;;2.15;;
21297;SDS011;10808;48.010;11.326;2022-07-30T13:28:55;3.25;;;2.60;;
21297;SDS011;10808;48.010;11.326;2022-07-30T13:31:22;3.85;;;2.33;;
21297;SDS011;10808;48.010;11.326;2022-07-30T13:33:49;2.42;;;2.22;;
21297;SDS011;10808;48.010;11.326;2022-07-30T13:36:16;2.67;;;2.47;;
21297;SDS011;10808;48.010;11.326;2022-07-30T13:38:43;4.63;;;2.50;;
21297;SDS011;10808;48.010;11.326;2022-07-30T13:41:09;3.10;;;2.55;;
21297;SDS011;10808;48.010;11.326;2022-07-30T13:43:35;4.80;;;2.35;;
21297;SDS011;10808;48.010;11.326;2022-07-30T13:46:02;3.47;;;2.13;;
21297;SDS011;10808;48.010;11.326;2022-07-30T13:48:29;3.78;;;2.50;;
21297;SDS011;10808;48.010;11.326;2022-07-30T13:50:56;2.92;;;2.45;;
21297;SDS011;10808;48.010;11.326;2022-07-30T13:53:22;2.75;;;2.30;;
21297;SDS011;10808;48.010;11.326;2022-07-30T13:55:48;2.60;;;2.40;;
21297;SDS011;10808;48.010;11.326;2022-07-30T13:58:14;4.53;;;2.72;;
21297;SDS011;10808;48.010;11.326;2022-07-30T14:00:40;3.60;;;2.40;;
21297;SDS011;10808;48.010;11.326;2022-07-30T14:03:10;5.68;;;2.83;;
21297;SDS011;10808;48.010;11.326;2022-07-30T14:05:37;3.20;;;2.47;;
21297;SDS011;10808;48.010;11.326;2022-07-30T14:08:04;3.08;;;2.65;;
21297;SDS011;10808;48.010;11.326;2022-07-30T14:10:32;3.78;;;2.90;;
21297;SDS011;10808;48.010;11.326;2022-07-30T14:12:59;3.17;;;2.50;;
21297;SDS011;10808;48.010;11.326;2022-07-30T14:15:26;4.68;;;2.75;;
21297;SDS011;10808;48.010;11.326;2022-07-30T14:17:55;2.92;;;2.42;;
21297;SDS011;10808;48.010;11.326;2022-07-30T14:20:21;3.92;;;2.60;;
21297;SDS011;10808;48.010;11.326;2022-07-30T14:22:48;4.93;;;2.55;;
21297;SDS011;10808;48.010;11.326;2022-07-30T14:25:15;4.75;;;2.88;;
21297;SDS011;10808;48.010;11.326;2022-07-30T14:27:41;2.65;;;2.45;;
21297;SDS011;10808;48.010;11.326;2022-07-30T14:30:08;3.30;;;2.60;;
21297;SDS011;10808;48.010;11.326;2022-07-30T14:32:35;2.78;;;2.55;;
21297;SDS011;10808;48.010;11.326;2022-07-30T14:35:02;5.97;;;2.40;;
21297;SDS011;10808;48.010;11.326;2022-07-30T14:37:29;3.40;;;2.50;;
21297;SDS011;10808;48.010;11.326;2022-07-30T14:39:55;3.20;;;2.40;;
21297;SDS011;10808;48.010;11.326;2022-07-30T14:42:21;2.92;;;2.20;;
21297;SDS011;10808;48.010;11.326;2022-07-30T14:44:49;4.07;;;2.63;;
21297;SDS011;10808;48.010;11.326;2022-07-30T14:47:16;2.65;;;2.30;;
21297;SDS011;10808;48.010;11.326;2022-07-30T14:49:42;3.25;;;2.50;;
21297;SDS011;10808;48.010;11.326;2022-07-30T14:52:08;2.83;;;2.60;;
21297;SDS011;10808;48.010;11.326;2022-07-30T14:54:34;3.83;;;2.40;;
21297;SDS011;10808;48.010;11.326;2022-07-30T14:57:00;2.63;;;2.40;;
21297;SDS011;10808;48.010;11.326;2022-07-30T14:59:26;4.00;;;2.28;;
21297;SDS011;10808;48.010;11.326;2022-07-30T15:01:53;3.05;;;2.42;;
21297;SDS011;10808;48.010;11.326;2022-07-30T15:04:19;3.45;;;2.22;;
21297;SDS011;10808;48.010;11.326;2022-07-30T15:06:45;2.72;;;2.50;;
21297;SDS011;10808;48.010;11.326;2022-07-30T15:09:12;3.37;;;2.30;;
21297;SDS011;10808;48.010;11.326;2022-07-30T15:11:38;4.93;;;2.57;;
21297;SDS011;10808;48.010;11.326;2022-07-30T15:14:04;5.18;;;2.42;;
21297;SDS011;10808;48.010;11.326;2022-07-30T15:16:30;3.40;;;2.30;;
21297;SDS011;10808;48.010;11.326;2022-07-30T15:18:56;3.58;;;2.28;;
21297;SDS011;10808;48.010;11.326;2022-07-30T15:21:23;2.38;;;2.17;;
21297;SDS011;10808;48.010;11.326;2022-07-30T15:23:49;4.63;;;2.33;;
21297;SDS011;10808;48.010;11.326;2022-07-30T15:26:15;3.00;;;2.30;;
21297;SDS011;10808;48.010;11.326;2022-07-30T15:28:41;3.25;;;2.63;;